createdAt,value
2023-05-25T00:01:01.750Z,64.43
2023-05-25T00:03:32.343Z,64.35
2023-05-25T00:06:00.764Z,64.33
2023-05-25T00:08:29.234Z,63.97
2023-05-25T00:10:56.684Z,64.20
2023-05-25T00:13:24.128Z,64.10
2023-05-25T00:15:51.880Z,64.04
2023-05-25T00:18:19.271Z,64.09
2023-05-25T00:20:46.794Z,63.94
2023-05-25T00:23:14.318Z,64.02
2023-05-25T00:25:42.347Z,64.38
2023-05-25T00:28:12.084Z,64.01
2023-05-25T00:30:39.769Z,64.13
2023-05-25T00:33:07.303Z,64.37
2023-05-25T00:35:34.765Z,64.43
2023-05-25T00:38:02.169Z,64.45
2023-05-25T00:40:30.089Z,64.40
2023-05-25T00:42:59.854Z,64.45
2023-05-25T00:45:27.249Z,64.59
2023-05-25T00:47:55.727Z,64.51
2023-05-25T00:50:41.760Z,64.28
2023-05-25T00:53:11.474Z,64.40
2023-05-25T00:56:05.111Z,64.34
2023-05-25T00:58:35.884Z,64.41
2023-05-25T01:01:06.166Z,64.53
2023-05-25T01:03:38.305Z,64.50
2023-05-25T01:06:14.516Z,64.51
2023-05-25T01:08:51.251Z,64.51
2023-05-25T01:11:28.131Z,64.55
2023-05-25T01:13:58.335Z,64.70
2023-05-25T01:16:26.367Z,64.55
2023-05-25T01:18:53.952Z,64.59
2023-05-25T01:21:51.892Z,64.52
2023-05-25T01:24:30.677Z,64.57
2023-05-25T01:27:43.424Z,64.54
2023-05-25T01:30:15.231Z,64.47
2023-05-25T01:32:45.244Z,64.57
2023-05-25T01:35:14.764Z,64.66
2023-05-25T01:37:49.940Z,64.76
2023-05-25T01:40:17.611Z,64.64
2023-05-25T01:42:45.123Z,64.70
2023-05-25T01:45:14.996Z,64.72
2023-05-25T01:48:24.508Z,64.48
2023-05-25T01:51:05.028Z,64.63
2023-05-25T01:53:43.743Z,64.70
2023-05-25T01:56:14.367Z,64.72
2023-05-25T01:58:48.814Z,65.00
2023-05-25T02:01:18.441Z,64.95
2023-05-25T02:03:49.310Z,64.94
2023-05-25T02:06:17.320Z,64.82
2023-05-25T02:08:44.765Z,65.21
2023-05-25T02:11:14.812Z,65.13
2023-05-25T02:13:42.233Z,65.02
2023-05-25T02:16:09.838Z,65.01
2023-05-25T02:18:37.300Z,64.80
2023-05-25T02:21:04.931Z,64.79
2023-05-25T02:23:32.435Z,64.43
2023-05-25T02:26:02.495Z,64.72
2023-05-25T02:28:29.882Z,64.72
2023-05-25T02:30:57.429Z,64.55
2023-05-25T02:33:24.741Z,64.90
2023-05-25T02:35:52.161Z,64.81
2023-05-25T02:38:19.661Z,64.96
2023-05-25T02:40:46.952Z,65.03
2023-05-25T02:43:14.360Z,64.92
2023-05-25T02:45:41.658Z,64.90
2023-05-25T02:48:09.473Z,64.72
2023-05-25T02:50:36.851Z,65.19
2023-05-25T02:53:04.845Z,65.09
2023-05-25T02:55:32.679Z,64.87
2023-05-25T02:58:00.225Z,64.80
2023-05-25T03:00:27.609Z,64.91
2023-05-25T03:02:54.952Z,64.90
2023-05-25T03:05:22.486Z,64.88
2023-05-25T03:07:50.206Z,64.56
2023-05-25T03:10:17.670Z,64.52
2023-05-25T03:12:44.967Z,64.70
2023-05-25T03:15:12.360Z,64.78
2023-05-25T03:17:39.833Z,64.88
2023-05-25T03:20:08.516Z,64.98
2023-05-25T03:22:36.202Z,64.97
2023-05-25T03:25:04.399Z,64.73
2023-05-25T03:27:31.803Z,65.09
2023-05-25T03:29:59.098Z,64.77
2023-05-25T03:32:26.645Z,64.86
2023-05-25T03:34:54.066Z,65.18
2023-05-25T03:37:21.460Z,65.02
2023-05-25T03:39:48.901Z,64.71
2023-05-25T03:42:16.421Z,64.69
2023-05-25T03:44:43.692Z,64.80
2023-05-25T03:47:11.448Z,64.81
2023-05-25T03:49:38.913Z,65.13
2023-05-25T03:52:07.035Z,65.35
2023-05-25T03:54:34.547Z,65.53
2023-05-25T03:57:02.139Z,65.33
2023-05-25T03:59:29.799Z,65.70
2023-05-25T04:01:57.172Z,65.47
2023-05-25T04:04:24.569Z,65.48
2023-05-25T04:06:51.992Z,65.42
2023-05-25T04:09:19.368Z,65.47
2023-05-25T04:11:46.979Z,65.11
2023-05-25T04:14:14.749Z,65.31
2023-05-25T04:16:42.273Z,65.07
2023-05-25T04:19:09.648Z,65.14
2023-05-25T04:21:37.100Z,65.38
2023-05-25T04:24:04.578Z,65.19
2023-05-25T04:26:31.952Z,65.41
2023-05-25T04:28:59.300Z,65.47
2023-05-25T04:31:26.734Z,65.44
2023-05-25T04:33:54.083Z,65.65
2023-05-25T04:36:21.825Z,65.42
2023-05-25T04:38:49.317Z,65.75
2023-05-25T04:41:16.942Z,65.71
2023-05-25T04:43:52.823Z,65.75
2023-05-25T04:46:31.871Z,65.88
2023-05-25T04:48:59.653Z,65.68
2023-05-25T04:51:26.890Z,65.67
2023-05-25T04:53:54.349Z,65.71
2023-05-25T04:56:24.391Z,65.52
2023-05-25T04:58:52.179Z,65.51
2023-05-25T05:01:19.515Z,65.63
2023-05-25T05:03:47.157Z,65.26
2023-05-25T05:06:14.857Z,65.06
2023-05-25T05:08:42.139Z,65.08
2023-05-25T05:11:09.625Z,64.96
2023-05-25T05:13:36.957Z,65.16
2023-05-25T05:16:04.578Z,65.56
2023-05-25T05:18:32.104Z,65.58
2023-05-25T05:20:59.351Z,65.53
2023-05-25T05:23:26.712Z,65.22
2023-05-25T05:25:53.974Z,65.08
2023-05-25T05:28:21.513Z,64.84
2023-05-25T05:30:48.896Z,65.19
2023-05-25T05:33:16.685Z,65.34
2023-05-25T05:35:45.062Z,65.50
2023-05-25T05:38:12.534Z,65.71
2023-05-25T05:40:39.957Z,65.56
2023-05-25T05:43:07.239Z,65.58
2023-05-25T05:45:34.744Z,65.38
2023-05-25T05:48:02.098Z,65.25
2023-05-25T05:50:29.407Z,65.26
2023-05-25T05:52:56.941Z,65.21
2023-05-25T05:55:24.605Z,65.16
2023-05-25T05:57:51.985Z,65.48
2023-05-25T06:00:19.889Z,65.54
2023-05-25T06:02:47.620Z,65.59
2023-05-25T06:05:15.262Z,65.22
2023-05-25T06:07:43.013Z,65.50
2023-05-25T06:10:10.680Z,65.04
2023-05-25T06:12:38.167Z,64.87
2023-05-25T06:15:06.424Z,64.61
2023-05-25T06:17:34.309Z,65.03
2023-05-25T06:20:01.835Z,65.35
2023-05-25T06:22:29.118Z,65.31
2023-05-25T06:24:56.432Z,65.10
2023-05-25T06:27:23.832Z,65.00
2023-05-25T06:29:51.517Z,65.00
2023-05-25T06:32:18.926Z,65.13
2023-05-25T06:34:46.435Z,65.13
2023-05-25T06:37:13.701Z,64.79
2023-05-25T06:39:40.974Z,64.56
2023-05-25T06:42:08.614Z,64.32
2023-05-25T06:44:35.870Z,64.65
2023-05-25T06:47:03.515Z,64.74
2023-05-25T06:49:30.928Z,64.45
2023-05-25T06:51:58.284Z,63.99
2023-05-25T06:54:25.645Z,63.71
2023-05-25T06:56:53.006Z,63.64
2023-05-25T06:59:20.334Z,63.61
2023-05-25T07:01:47.850Z,63.32
2023-05-25T07:04:15.233Z,62.82
2023-05-25T07:06:42.534Z,61.95
2023-05-25T07:09:10.140Z,61.66
2023-05-25T07:11:37.510Z,61.93
2023-05-25T07:14:04.775Z,61.81
2023-05-25T07:16:32.219Z,62.20
2023-05-25T07:19:00.528Z,60.78
2023-05-25T07:21:32.201Z,60.04
2023-05-25T07:23:59.581Z,59.23
2023-05-25T07:26:27.034Z,58.61
2023-05-25T07:28:54.597Z,59.17
2023-05-25T07:31:21.986Z,60.39
2023-05-25T07:33:49.447Z,60.68
2023-05-25T07:36:17.751Z,61.52
2023-05-25T07:38:46.417Z,61.07
2023-05-25T07:41:14.156Z,60.92
2023-05-25T07:43:43.685Z,61.40
2023-05-25T07:46:11.045Z,61.54
2023-05-25T07:48:38.678Z,61.13
2023-05-25T07:51:06.148Z,60.75
2023-05-25T07:53:33.712Z,60.06
2023-05-25T07:56:01.325Z,59.90
2023-05-25T07:58:28.961Z,59.19
2023-05-25T08:00:56.509Z,58.99
2023-05-25T08:03:31.742Z,58.87
2023-05-25T08:06:03.725Z,59.45
2023-05-25T08:08:31.202Z,58.95
2023-05-25T08:14:57.950Z,59.81
2023-05-25T08:17:25.579Z,59.28
2023-05-25T08:19:55.179Z,58.40
2023-05-25T08:22:22.825Z,58.58
2023-05-25T08:24:50.215Z,58.28
2023-05-25T08:27:18.624Z,58.69
2023-05-25T08:29:45.902Z,58.32
2023-05-25T08:32:13.242Z,59.25
2023-05-25T08:34:40.767Z,59.49
2023-05-25T08:37:08.079Z,59.17
2023-05-25T08:39:35.421Z,59.01
2023-05-25T08:42:02.792Z,59.46
2023-05-25T08:44:30.866Z,58.65
2023-05-25T08:47:08.024Z,58.82
2023-05-25T08:49:39.772Z,58.86
2023-05-25T08:52:13.876Z,58.16
2023-05-25T08:54:45.806Z,58.47
2023-05-25T08:57:31.762Z,58.61
2023-05-25T09:00:08.586Z,59.45
2023-05-25T09:02:50.830Z,57.78
2023-05-25T09:05:19.274Z,56.80
2023-05-25T09:07:47.878Z,57.33
2023-05-25T09:10:15.653Z,58.14
2023-05-25T09:12:43.680Z,57.42
2023-05-25T09:15:12.097Z,57.94
2023-05-25T09:17:40.835Z,57.50
2023-05-25T09:20:12.876Z,54.92
2023-05-25T09:22:42.167Z,54.47
2023-05-25T09:25:11.666Z,56.77
2023-05-25T09:27:39.725Z,58.02
2023-05-25T09:30:08.364Z,56.53
2023-05-25T09:32:36.593Z,57.19
2023-05-25T09:35:13.489Z,57.46
2023-05-25T09:37:42.570Z,57.30
2023-05-25T09:40:11.128Z,57.68
2023-05-25T09:42:38.941Z,57.15
2023-05-25T09:45:07.114Z,55.12
2023-05-25T09:47:37.294Z,55.88
2023-05-25T09:50:05.916Z,55.99
2023-05-25T09:52:33.463Z,54.64
2023-05-25T09:55:02.968Z,54.07
2023-05-25T09:57:30.378Z,52.59
2023-05-25T09:59:57.867Z,55.10
2023-05-25T10:02:25.449Z,54.95
2023-05-25T10:04:52.919Z,53.59
2023-05-25T10:07:20.751Z,53.40
2023-05-25T10:09:51.168Z,54.02
2023-05-25T10:12:22.011Z,54.77
2023-05-25T10:14:53.469Z,55.34
2023-05-25T10:17:24.488Z,56.04
2023-05-25T10:20:01.216Z,56.43
2023-05-25T10:22:47.625Z,56.28
2023-05-25T10:25:31.756Z,56.06
2023-05-25T10:28:36.701Z,54.47
2023-05-25T10:31:05.502Z,53.64
2023-05-25T10:33:34.109Z,52.01
2023-05-25T10:36:10.746Z,52.13
2023-05-25T10:38:41.188Z,51.53
2023-05-25T10:41:11.587Z,49.77
2023-05-25T10:43:40.350Z,48.81
2023-05-25T10:46:08.872Z,49.74
2023-05-25T10:48:46.320Z,45.44
2023-05-25T10:51:13.747Z,45.02
2023-05-25T10:53:59.991Z,45.65
2023-05-25T10:56:27.392Z,47.20
2023-05-25T10:58:54.832Z,49.40
2023-05-25T11:01:22.839Z,50.23
2023-05-25T11:04:14.882Z,52.13
2023-05-25T11:07:02.103Z,49.75
2023-05-25T11:09:31.656Z,53.80
2023-05-25T11:11:58.871Z,51.73
2023-05-25T11:14:34.965Z,50.84
2023-05-25T11:17:20.519Z,54.25
2023-05-25T11:19:55.189Z,54.97
2023-05-25T11:22:35.798Z,55.64
2023-05-25T11:25:37.639Z,55.92
2023-05-25T11:28:07.214Z,52.89
2023-05-25T11:30:35.329Z,50.99
2023-05-25T11:33:04.543Z,50.03
2023-05-25T11:35:33.093Z,49.42
2023-05-25T11:38:01.098Z,49.15
2023-05-25T11:40:31.900Z,49.22
2023-05-25T11:43:02.096Z,49.07
2023-05-25T11:45:33.248Z,50.55
2023-05-25T11:48:00.961Z,51.86
2023-05-25T11:50:28.372Z,53.08
2023-05-25T11:52:56.108Z,53.92
2023-05-25T11:55:23.581Z,54.60
2023-05-25T11:57:58.522Z,54.01
2023-05-25T12:00:27.981Z,54.64
2023-05-25T12:02:55.971Z,55.04
2023-05-25T12:05:23.517Z,55.69
2023-05-25T12:07:52.723Z,53.47
2023-05-25T12:10:20.157Z,48.19
2023-05-25T12:12:52.948Z,47.74
2023-05-25T12:15:25.338Z,47.33
2023-05-25T12:17:54.522Z,45.26
2023-05-25T12:20:22.751Z,45.12
2023-05-25T12:22:50.350Z,43.80
2023-05-25T12:25:21.735Z,43.06
2023-05-25T12:27:49.388Z,40.37
2023-05-25T12:30:16.946Z,37.92
2023-05-25T12:33:03.424Z,38.72
2023-05-25T12:35:48.656Z,38.75
2023-05-25T12:38:20.917Z,38.44
2023-05-25T12:41:05.151Z,38.29
2023-05-25T12:43:40.767Z,37.29
2023-05-25T12:46:08.382Z,37.35
2023-05-25T12:48:35.863Z,36.47
2023-05-25T12:51:03.527Z,36.02
2023-05-25T12:53:31.357Z,35.38
2023-05-25T12:56:03.622Z,34.18
2023-05-25T12:58:31.281Z,34.49
2023-05-25T13:00:59.004Z,33.66
2023-05-25T13:03:29.175Z,34.19
2023-05-25T13:06:02.381Z,33.19
2023-05-25T13:08:30.424Z,33.89
2023-05-25T13:10:57.970Z,33.63
2023-05-25T13:13:25.409Z,33.87
2023-05-25T13:15:53.013Z,32.07
2023-05-25T13:18:20.748Z,32.66
2023-05-25T13:20:51.272Z,31.29
2023-05-25T13:23:20.807Z,31.52
2023-05-25T13:25:48.081Z,32.64
2023-05-25T13:28:15.331Z,31.70
2023-05-25T13:30:43.574Z,30.72
2023-05-25T13:33:11.381Z,32.09
2023-05-25T13:35:38.704Z,31.19
2023-05-25T13:38:06.046Z,30.87
2023-05-25T13:40:33.326Z,31.18
2023-05-25T13:43:00.674Z,30.91
2023-05-25T13:45:27.965Z,31.05
2023-05-25T13:47:55.568Z,29.67
2023-05-25T13:50:23.067Z,28.57
2023-05-25T13:52:50.367Z,28.68
2023-05-25T13:55:17.992Z,29.18
2023-05-25T13:57:45.230Z,29.47
2023-05-25T14:00:13.346Z,28.60
2023-05-25T14:02:40.965Z,28.99
2023-05-25T14:05:08.795Z,29.30
2023-05-25T14:07:36.152Z,28.61
2023-05-25T14:10:06.417Z,29.13
2023-05-25T14:12:33.848Z,29.88
2023-05-25T14:15:01.197Z,27.46
2023-05-25T14:17:28.771Z,28.82
2023-05-25T14:19:56.316Z,28.22
2023-05-25T14:22:24.134Z,30.19
2023-05-25T14:24:52.983Z,28.84
2023-05-25T14:27:20.598Z,27.41
2023-05-25T14:29:50.470Z,27.07
2023-05-25T14:32:21.208Z,26.56
2023-05-25T14:34:48.566Z,27.92
2023-05-25T14:37:15.839Z,26.69
2023-05-25T14:39:43.138Z,26.84
2023-05-25T14:42:10.560Z,27.52
2023-05-25T14:44:37.892Z,26.88
2023-05-25T14:47:06.055Z,24.94
2023-05-25T14:49:33.417Z,24.62
2023-05-25T14:52:00.744Z,24.18
2023-05-25T14:54:28.035Z,24.99
2023-05-25T14:56:55.421Z,24.97
2023-05-25T14:59:22.805Z,27.11
2023-05-25T15:01:50.266Z,26.89
2023-05-25T15:04:17.615Z,27.23
2023-05-25T15:06:45.202Z,24.79
2023-05-25T15:09:12.812Z,25.41
2023-05-25T15:11:40.133Z,24.29
2023-05-25T15:14:07.543Z,24.40
2023-05-25T15:16:35.170Z,24.22
2023-05-25T15:19:02.865Z,24.50
2023-05-25T15:21:30.212Z,24.20
2023-05-25T15:23:57.477Z,24.10
2023-05-25T15:26:24.783Z,23.57
2023-05-25T15:28:52.314Z,24.00
2023-05-25T15:31:19.608Z,25.20
2023-05-25T15:33:54.321Z,25.76
2023-05-25T15:36:26.027Z,25.82
2023-05-25T15:38:53.347Z,25.41
2023-05-25T15:41:20.675Z,26.91
2023-05-25T15:43:56.119Z,27.03
2023-05-25T15:46:24.386Z,28.13
2023-05-25T15:48:51.822Z,26.27
2023-05-25T15:51:19.721Z,24.16
2023-05-25T15:53:47.610Z,26.51
2023-05-25T15:56:14.983Z,26.96
2023-05-25T15:58:42.493Z,28.24
2023-05-25T16:01:11.267Z,25.51
2023-05-25T16:03:40.625Z,30.22
2023-05-25T16:06:08.479Z,30.12
2023-05-25T16:08:35.775Z,30.93
2023-05-25T16:11:03.450Z,31.55
2023-05-25T16:13:31.370Z,29.89
2023-05-25T16:15:58.747Z,28.53
2023-05-25T16:18:26.133Z,29.30
2023-05-25T16:20:53.614Z,28.78
2023-05-25T16:23:21.239Z,30.82
2023-05-25T16:25:48.534Z,29.60
2023-05-25T16:28:16.803Z,30.75
2023-05-25T16:30:44.131Z,30.13
2023-05-25T16:33:11.837Z,30.64
2023-05-25T16:35:39.371Z,31.01
2023-05-25T16:38:06.713Z,29.51
2023-05-25T16:40:34.215Z,32.78
2023-05-25T16:43:01.795Z,35.48
2023-05-25T16:45:31.634Z,33.30
2023-05-25T16:47:59.064Z,34.94
2023-05-25T16:50:26.354Z,36.18
2023-05-25T16:52:53.766Z,35.97
2023-05-25T16:55:21.153Z,35.19
2023-05-25T16:57:48.617Z,37.32
2023-05-25T17:00:16.690Z,37.48
2023-05-25T17:02:45.587Z,35.88
2023-05-25T17:05:13.016Z,36.29
2023-05-25T17:07:40.665Z,35.58
2023-05-25T17:10:09.008Z,36.04
2023-05-25T17:12:37.563Z,38.33
2023-05-25T17:15:05.752Z,37.26
2023-05-25T17:17:33.138Z,38.07
2023-05-25T17:20:00.632Z,36.94
2023-05-25T17:22:33.749Z,38.13
2023-05-25T17:25:01.817Z,36.39
2023-05-25T17:27:29.286Z,36.72
2023-05-25T17:29:56.825Z,38.72
2023-05-25T17:32:24.179Z,39.56
2023-05-25T17:34:51.590Z,40.14
2023-05-25T17:37:19.212Z,39.86
2023-05-25T17:39:48.243Z,41.08
2023-05-25T17:42:16.072Z,41.18
2023-05-25T17:44:43.413Z,42.08
2023-05-25T17:47:11.468Z,41.95
2023-05-25T17:49:38.874Z,41.92
2023-05-25T17:52:06.375Z,42.34
2023-05-25T17:54:35.139Z,40.64
2023-05-25T17:57:03.170Z,40.50
2023-05-25T17:59:30.539Z,41.63
2023-05-25T18:01:58.090Z,41.26
2023-05-25T18:04:25.519Z,42.11
2023-05-25T18:06:52.739Z,42.47
2023-05-25T18:09:20.360Z,42.67
2023-05-25T18:11:48.113Z,42.80
2023-05-25T18:14:15.678Z,43.57
2023-05-25T18:16:43.313Z,43.71
2023-05-25T18:19:11.442Z,43.77
2023-05-25T18:21:38.837Z,44.22
2023-05-25T18:24:07.517Z,43.48
2023-05-25T18:26:35.517Z,44.82
2023-05-25T18:29:02.910Z,44.69
2023-05-25T18:31:30.826Z,44.18
2023-05-25T18:33:59.440Z,43.97
2023-05-25T18:36:27.026Z,44.74
2023-05-25T18:38:54.493Z,44.83
2023-05-25T18:41:21.891Z,45.48
2023-05-25T18:43:49.206Z,45.86
2023-05-25T18:46:16.583Z,46.18
2023-05-25T18:48:44.151Z,46.79
2023-05-25T18:51:11.661Z,46.74
2023-05-25T18:53:39.122Z,46.52
2023-05-25T18:56:06.880Z,46.98
2023-05-25T18:58:34.270Z,46.66
2023-05-25T19:01:01.544Z,47.13
2023-05-25T19:03:28.980Z,47.05
2023-05-25T19:05:56.428Z,47.43
2023-05-25T19:08:23.772Z,47.55
2023-05-25T19:10:51.170Z,47.26
2023-05-25T19:13:19.116Z,47.26
2023-05-25T19:15:46.900Z,47.20
2023-05-25T19:18:14.540Z,47.85
2023-05-25T19:20:42.409Z,48.13
2023-05-25T19:23:10.062Z,47.98
2023-05-25T19:25:37.331Z,48.37
2023-05-25T19:28:04.926Z,48.48
2023-05-25T19:30:32.301Z,48.60
2023-05-25T19:32:59.779Z,48.72
2023-05-25T19:35:27.261Z,48.55
2023-05-25T19:37:54.640Z,48.73
2023-05-25T19:40:22.068Z,49.31
2023-05-25T19:42:49.946Z,49.52
2023-05-25T19:45:17.266Z,49.53
2023-05-25T19:47:45.425Z,49.54
2023-05-25T19:50:13.132Z,49.63
2023-05-25T19:52:40.510Z,49.51
2023-05-25T19:55:08.104Z,49.59
2023-05-25T19:57:35.478Z,49.48
2023-05-25T20:00:03.785Z,49.80
2023-05-25T20:02:32.093Z,49.98
2023-05-25T20:04:59.722Z,50.28
2023-05-25T20:07:27.052Z,50.30
2023-05-25T20:09:54.386Z,50.37
2023-05-25T20:12:21.643Z,50.70
2023-05-25T20:14:49.296Z,50.69
2023-05-25T20:17:16.560Z,50.79
2023-05-25T20:19:43.850Z,50.67
2023-05-25T20:22:11.180Z,51.23
2023-05-25T20:24:38.934Z,50.98
2023-05-25T20:27:06.700Z,50.96
2023-05-25T20:29:34.241Z,51.17
2023-05-25T20:32:01.683Z,51.14
2023-05-25T20:34:29.031Z,51.43
2023-05-25T20:36:56.436Z,51.49
2023-05-25T20:39:23.731Z,51.59
2023-05-25T20:41:51.049Z,51.47
2023-05-25T20:44:18.408Z,51.44
2023-05-25T20:46:45.719Z,51.43
2023-05-25T20:49:13.004Z,51.16
2023-05-25T20:51:41.794Z,50.94
2023-05-25T20:54:09.182Z,51.36
2023-05-25T20:56:36.540Z,51.61
2023-05-25T20:59:03.901Z,51.82
2023-05-25T21:01:31.301Z,51.81
2023-05-25T21:03:58.890Z,51.81
2023-05-25T21:06:26.380Z,51.65
2023-05-25T21:08:53.662Z,51.42
2023-05-25T21:11:21.504Z,51.57
2023-05-25T21:13:49.371Z,51.59
2023-05-25T21:16:17.017Z,51.91
2023-05-25T21:18:44.927Z,52.24
2023-05-25T21:21:12.729Z,52.33
2023-05-25T21:23:40.472Z,52.38
2023-05-25T21:26:08.355Z,52.31
2023-05-25T21:28:36.052Z,52.37
2023-05-25T21:31:03.682Z,52.22
2023-05-25T21:33:31.649Z,52.17
2023-05-25T21:35:59.233Z,52.23
2023-05-25T21:38:26.776Z,52.42
2023-05-25T21:40:54.499Z,52.54
2023-05-25T21:43:22.318Z,52.52
2023-05-25T21:45:49.990Z,52.58
2023-05-25T21:48:17.648Z,52.52
2023-05-25T21:50:45.297Z,52.46
2023-05-25T21:53:13.258Z,52.46
2023-05-25T21:55:40.871Z,52.57
2023-05-25T21:58:08.682Z,52.60
2023-05-25T22:00:36.090Z,52.67
2023-05-25T22:03:04.092Z,52.74
2023-05-25T22:05:31.623Z,53.11
2023-05-25T22:07:58.833Z,53.16
2023-05-25T22:10:26.100Z,53.30
2023-05-25T22:12:53.594Z,53.30
2023-05-25T22:15:21.079Z,53.09
2023-05-25T22:17:48.456Z,53.11
2023-05-25T22:20:18.205Z,53.16
2023-05-25T22:22:45.698Z,53.37
2023-05-25T22:25:13.338Z,53.49
2023-05-25T22:27:40.937Z,53.66
2023-05-25T22:30:09.450Z,53.72
2023-05-25T22:32:36.997Z,53.80
2023-05-25T22:35:04.772Z,53.93
2023-05-25T22:37:32.029Z,53.98
2023-05-25T22:39:59.274Z,53.85
2023-05-25T22:42:26.693Z,54.00
2023-05-25T22:44:54.027Z,53.77
2023-05-25T22:47:21.380Z,53.71
2023-05-25T22:49:48.734Z,53.50
2023-05-25T22:52:16.098Z,53.76
2023-05-25T22:54:43.695Z,53.56
2023-05-25T22:57:11.489Z,53.14
2023-05-25T22:59:39.157Z,53.48
2023-05-25T23:02:06.987Z,53.46
2023-05-25T23:04:35.957Z,53.48
2023-05-25T23:07:03.865Z,53.68
2023-05-25T23:09:31.585Z,53.57
2023-05-25T23:11:59.105Z,53.50
2023-05-25T23:14:26.774Z,53.48
2023-05-25T23:16:54.478Z,53.26
2023-05-25T23:19:22.188Z,53.17
2023-05-25T23:21:50.169Z,53.32
2023-05-25T23:24:18.014Z,53.48
2023-05-25T23:26:45.614Z,53.59
2023-05-25T23:29:13.335Z,53.68
2023-05-25T23:31:41.237Z,53.85
2023-05-25T23:34:08.836Z,53.91
2023-05-25T23:36:36.414Z,53.71
2023-05-25T23:39:04.294Z,53.81
2023-05-25T23:41:32.019Z,53.62
2023-05-25T23:43:59.582Z,53.43
2023-05-25T23:46:27.373Z,53.48
2023-05-25T23:48:55.050Z,53.44
2023-05-25T23:51:22.647Z,53.85
2023-05-25T23:53:50.616Z,54.10
2023-05-25T23:56:18.579Z,54.14
2023-05-25T23:58:46.161Z,54.26
